Airport View

Enter AWOS ICAO identifier for current METAR.

ex. KFNL

KCWI 191256Z AUTO 20011KT 10SM OVC012 17/16 A2956 RMK AO2 SLP030 T01720161

19 May 2019 13:08

Frequency: 125.525

Phone: 563-243-8934

Other Area AWOS: KSFY - KDVN - KMLI - KSQI

TAF AMD KMLI 191233Z 1913/2012 20012G20KT 6SM -SHRA VCTS BKN015 OVC025CB FM191500 24017G27KT P6SM OVC020 FM192300 28018G30KT P6SM BKN035 FM200200 29015G24KT P6SM BKN030